Time;durP1;ratioP1;P1;durP2;ratioP2;P2;SDS_P1;SDS_P2;PMS_P1;PMS_P2;Temp;Humidity;BMP_temperature;BMP_pressure;BME280_temperature;BME280_humidity;BME280_pressure;Samples;Min_cycle;Max_cycle;Signal;HPM_P1;HPM_P2
2024/02/20 00:00:51;;;;;;;16.77;10.70;;;9.50;1.00;;;;;;5097901;28;20438;-73
2024/02/20 00:03:18;;;;;;;12.40;10.30;;;9.50;1.00;;;;;;5099193;28;20502;-73
2024/02/20 00:05:46;;;;;;;14.13;9.67;;;9.50;1.00;;;;;;5098187;27;20481;-73
2024/02/20 00:08:12;;;;;;;16.60;10.67;;;9.50;1.00;;;;;;5102117;27;20442;-73
2024/02/20 00:10:39;;;;;;;12.50;10.60;;;9.60;1.00;;;;;;5097164;28;20457;-75
2024/02/20 00:13:06;;;;;;;15.90;10.20;;;9.60;1.00;;;;;;5099877;28;20470;-73
2024/02/20 00:15:35;;;;;;;15.73;10.63;;;9.60;1.00;;;;;;5096097;28;20454;-73
2024/02/20 00:18:03;;;;;;;10.70;9.23;;;9.60;1.00;;;;;;5096449;28;20470;-75
2024/02/20 00:20:30;;;;;;;12.23;11.00;;;9.60;1.00;;;;;;5099305;28;20431;-73
2024/02/20 00:22:57;;;;;;;12.67;9.40;;;9.70;1.00;;;;;;5098289;28;21027;-74
2024/02/20 00:25:24;;;;;;;13.80;10.17;;;9.70;1.00;;;;;;5097931;27;20469;-76
2024/02/20 00:27:51;;;;;;;11.93;10.07;;;9.70;1.00;;;;;;5102879;27;20437;-74
2024/02/20 00:30:18;;;;;;;12.40;9.77;;;9.70;1.00;;;;;;5096400;28;20533;-75
2024/02/20 00:32:46;;;;;;;13.47;10.40;;;9.70;1.00;;;;;;5098787;28;20537;-74
2024/02/20 00:35:13;;;;;;;15.30;11.67;;;9.70;1.00;;;;;;5094275;28;21112;-75
2024/02/20 00:37:40;;;;;;;14.57;11.63;;;9.70;1.00;;;;;;5097062;27;20477;-75
2024/02/20 00:40:09;;;;;;;12.47;9.80;;;9.80;1.00;;;;;;5101975;28;20962;-76
2024/02/20 00:42:36;;;;;;;10.63;9.63;;;9.80;1.00;;;;;;5094356;27;20520;-76
2024/02/20 00:45:04;;;;;;;9.07;7.80;;;9.80;1.00;;;;;;5094822;27;21071;-75
2024/02/20 00:47:31;;;;;;;11.37;9.00;;;9.70;1.00;;;;;;5103777;27;20955;-74
2024/02/20 00:49:59;;;;;;;12.57;9.90;;;9.80;1.00;;;;;;5092483;28;20970;-75
2024/02/20 00:52:26;;;;;;;11.33;8.90;;;9.80;1.00;;;;;;5097571;27;20466;-76
2024/02/20 00:54:53;;;;;;;10.83;8.97;;;9.80;1.00;;;;;;5096499;28;20491;-75
2024/02/20 00:57:20;;;;;;;9.13;8.20;;;9.90;1.00;;;;;;5096881;27;20466;-75
2024/02/20 00:59:48;;;;;;;9.57;8.50;;;9.90;1.00;;;;;;5095921;28;20514;-75
2024/02/20 01:02:15;;;;;;;14.40;9.33;;;9.90;1.00;;;;;;5096128;27;20524;-76
2024/02/20 01:04:41;;;;;;;13.60;8.80;;;9.90;1.00;;;;;;5096341;27;20980;-75
2024/02/20 01:07:10;;;;;;;11.97;9.20;;;9.80;1.00;;;;;;5098577;27;20860;-75
2024/02/20 01:09:38;;;;;;;11.00;8.90;;;9.80;1.00;;;;;;5093356;27;20945;-75
2024/02/20 01:12:06;;;;;;;12.07;8.37;;;9.80;1.00;;;;;;5097422;27;20870;-76
2024/02/20 01:14:33;;;;;;;11.70;8.87;;;9.80;1.00;;;;;;5095125;27;20446;-74
2024/02/20 01:17:00;;;;;;;10.63;8.10;;;9.80;1.00;;;;;;5092326;28;20493;-76
2024/02/20 01:19:27;;;;;;;13.37;8.60;;;9.80;1.00;;;;;;5097357;27;20544;-75
2024/02/20 01:21:54;;;;;;;11.93;8.93;;;9.80;1.00;;;;;;5087864;27;20528;-75
2024/02/20 01:24:22;;;;;;;9.80;7.57;;;9.80;1.00;;;;;;5077364;28;20456;-75
2024/02/20 01:26:49;;;;;;;9.87;8.00;;;9.70;1.00;;;;;;5079217;28;20515;-74
2024/02/20 01:29:21;;;;;;;9.03;7.83;;;9.80;1.00;;;;;;5102609;28;20450;-74
2024/02/20 01:31:48;;;;;;;8.77;7.87;;;9.80;1.00;;;;;;5095932;28;20971;-76
2024/02/20 01:34:15;;;;;;;9.60;7.67;;;9.80;1.00;;;;;;5098720;27;20463;-74
2024/02/20 01:36:42;;;;;;;9.40;7.37;;;9.80;1.00;;;;;;5096709;28;20561;-75
2024/02/20 01:39:09;;;;;;;11.63;7.63;;;9.80;1.00;;;;;;5092977;28;21059;-75
2024/02/20 01:41:37;;;;;;;9.37;7.87;;;9.80;1.00;;;;;;5094040;27;20944;-76
2024/02/20 01:46:45;;;;;;;9.00;7.70;;;9.80;1.00;;;;;;5093056;28;20476;-76
2024/02/20 01:49:12;;;;;;;10.47;7.17;;;9.80;1.00;;;;;;5093594;27;20469;-77
2024/02/20 01:51:40;;;;;;;8.57;7.07;;;9.80;1.00;;;;;;5090801;27;20605;-76
2024/02/20 01:54:07;;;;;;;9.70;7.13;;;9.80;1.00;;;;;;5094121;28;21001;-76
2024/02/20 01:56:39;;;;;;;10.93;8.30;;;9.80;1.00;;;;;;5092653;28;20513;-77
2024/02/20 01:59:06;;;;;;;8.93;7.20;;;9.70;1.00;;;;;;5095814;28;20446;-77
2024/02/20 02:01:33;;;;;;;10.97;6.53;;;9.70;1.00;;;;;;5090693;28;20518;-76
2024/02/20 02:04:00;;;;;;;11.20;6.93;;;9.70;1.00;;;;;;5091366;27;21009;-77
2024/02/20 02:06:29;;;;;;;7.37;6.67;;;9.80;1.00;;;;;;5091783;28;20875;-75
2024/02/20 02:08:56;;;;;;;7.30;6.60;;;9.70;1.00;;;;;;5090410;28;20516;-76
2024/02/20 02:11:23;;;;;;;7.73;6.77;;;9.70;1.00;;;;;;5091643;27;20549;-75
2024/02/20 02:13:51;;;;;;;11.20;7.03;;;9.70;1.00;;;;;;5093017;28;20551;-76
2024/02/20 02:16:19;;;;;;;9.37;7.20;;;9.70;1.00;;;;;;5089458;27;20465;-77
2024/02/20 02:18:46;;;;;;;10.00;8.00;;;9.70;1.00;;;;;;5094829;27;20461;-77
2024/02/20 02:21:13;;;;;;;7.50;6.43;;;9.70;1.00;;;;;;5101419;27;20899;-76
2024/02/20 02:23:40;;;;;;;7.90;7.10;;;9.70;1.00;;;;;;5096112;27;20498;-77
2024/02/20 02:26:11;;;;;;;8.50;6.20;;;9.70;1.00;;;;;;5094578;27;20669;-77
2024/02/20 02:28:38;;;;;;;7.80;6.57;;;9.60;1.00;;;;;;5093065;27;21291;-77
2024/02/20 02:31:05;;;;;;;9.13;6.57;;;9.60;1.00;;;;;;5092554;28;20958;-76
2024/02/20 02:33:32;;;;;;;7.80;6.03;;;9.60;1.00;;;;;;5095901;27;20450;-76
2024/02/20 02:36:01;;;;;;;11.70;6.70;;;9.50;1.00;;;;;;5092996;28;20463;-77
2024/02/20 02:38:28;;;;;;;10.03;7.27;;;9.60;1.00;;;;;;5093669;27;20963;-76
2024/02/20 02:40:55;;;;;;;7.90;7.10;;;9.60;1.00;;;;;;5095518;27;20498;-75
2024/02/20 02:43:23;;;;;;;7.80;6.63;;;9.60;1.00;;;;;;5095610;28;20502;-76
2024/02/20 02:45:50;;;;;;;9.43;6.13;;;9.60;1.00;;;;;;5079661;28;20465;-77
2024/02/20 02:48:17;;;;;;;8.67;6.13;;;9.60;1.00;;;;;;5079049;28;20442;-78
2024/02/20 02:50:45;;;;;;;6.90;5.43;;;9.60;1.00;;;;;;5085348;27;20451;-75
2024/02/20 02:53:12;;;;;;;7.40;6.10;;;9.60;1.00;;;;;;5080691;28;20523;-76
2024/02/20 02:55:39;;;;;;;10.20;6.80;;;9.70;1.00;;;;;;5077542;28;20975;-75
2024/02/20 02:58:06;;;;;;;9.10;6.03;;;9.60;1.00;;;;;;5097157;28;20457;-76
2024/02/20 03:00:35;;;;;;;7.83;5.67;;;9.70;1.00;;;;;;5095599;27;20513;-76
2024/02/20 03:03:02;;;;;;;7.10;6.40;;;9.70;1.00;;;;;;5098560;28;20583;-76
2024/02/20 03:05:29;;;;;;;8.00;6.13;;;9.60;1.00;;;;;;5095949;27;20474;-76
2024/02/20 03:07:56;;;;;;;7.67;5.57;;;9.60;1.00;;;;;;5094783;27;21509;-76
2024/02/20 03:10:24;;;;;;;10.03;6.20;;;9.60;1.00;;;;;;5098005;27;20542;-75
2024/02/20 03:12:52;;;;;;;6.20;5.57;;;9.60;1.00;;;;;;5091193;27;20519;-76
2024/02/20 03:15:19;;;;;;;9.27;5.80;;;9.70;1.00;;;;;;5097752;28;20469;-75
2024/02/20 03:17:49;;;;;;;6.93;5.20;;;9.60;1.00;;;;;;5095099;27;20923;-75
2024/02/20 03:20:16;;;;;;;5.70;4.93;;;9.70;1.00;;;;;;5097954;28;20470;-76
2024/02/20 03:22:43;;;;;;;7.93;5.80;;;9.60;1.00;;;;;;5095730;27;20586;-77
2024/02/20 03:25:10;;;;;;;8.43;5.43;;;9.60;1.00;;;;;;5095422;27;20558;-76
2024/02/20 03:27:37;;;;;;;5.70;4.73;;;9.70;1.00;;;;;;5098770;28;20502;-76
2024/02/20 03:30:05;;;;;;;5.43;4.80;;;9.70;1.00;;;;;;5093087;27;20458;-77
2024/02/20 03:32:32;;;;;;;6.63;4.80;;;9.70;1.00;;;;;;5096836;27;21131;-76
2024/02/20 03:35:02;;;;;;;7.90;5.90;;;9.70;1.00;;;;;;5095620;28;22616;-76
2024/02/20 03:37:29;;;;;;;10.33;6.07;;;9.70;1.00;;;;;;5096188;28;20453;-75
2024/02/20 03:39:56;;;;;;;6.93;5.17;;;9.60;1.00;;;;;;5095511;27;20484;-77
2024/02/20 03:42:23;;;;;;;7.00;5.00;;;9.60;1.00;;;;;;5097449;27;20490;-77
2024/02/20 03:44:50;;;;;;;6.63;4.97;;;9.60;1.00;;;;;;5096971;28;20498;-76
2024/02/20 03:47:18;;;;;;;5.27;4.33;;;9.50;1.00;;;;;;5096239;28;20488;-77
2024/02/20 03:49:47;;;;;;;8.10;4.67;;;9.50;1.00;;;;;;5094146;28;20827;-79
2024/02/20 03:52:15;;;;;;;5.73;4.77;;;9.40;1.00;;;;;;5093645;27;20476;-78
2024/02/20 03:54:42;;;;;;;6.43;4.47;;;9.50;1.00;;;;;;5096853;27;20468;-75
2024/02/20 03:57:12;;;;;;;8.90;4.20;;;9.40;1.00;;;;;;5080433;28;20461;-77
2024/02/20 03:59:39;;;;;;;6.23;4.00;;;9.30;1.00;;;;;;5095466;28;20453;-76
2024/02/20 04:02:06;;;;;;;5.20;4.10;;;9.30;1.00;;;;;;5098485;27;20486;-76
2024/02/20 04:04:34;;;;;;;5.83;5.23;;;9.20;1.00;;;;;;5085688;28;20986;-76
2024/02/20 04:07:01;;;;;;;6.20;4.60;;;9.20;1.00;;;;;;5097154;27;20464;-76
2024/02/20 04:09:30;;;;;;;6.93;4.67;;;9.10;1.00;;;;;;5099878;27;20936;-76
2024/02/20 04:11:57;;;;;;;5.70;3.03;;;9.10;1.00;;;;;;5098291;28;20416;-76
2024/02/20 04:14:24;;;;;;;6.20;3.53;;;9.00;1.00;;;;;;5095999;27;20471;-77
2024/02/20 04:16:51;;;;;;;5.17;3.70;;;9.00;1.00;;;;;;5095006;27;20534;-76
2024/02/20 04:19:20;;;;;;;7.20;3.67;;;9.00;1.00;;;;;;5094840;28;20472;-76
2024/02/20 04:21:47;;;;;;;5.17;4.07;;;9.00;1.00;;;;;;5092085;27;20446;-77
2024/02/20 04:24:14;;;;;;;6.30;4.17;;;9.00;1.00;;;;;;5097319;28;20473;-76
2024/02/20 04:26:42;;;;;;;3.77;2.83;;;9.00;1.00;;;;;;5097492;28;20461;-76
2024/02/20 04:29:09;;;;;;;3.50;3.20;;;9.00;1.00;;;;;;5094271;28;20556;-77
2024/02/20 04:31:36;;;;;;;7.00;5.10;;;8.90;1.00;;;;;;5096231;27;20503;-77
2024/02/20 04:34:03;;;;;;;4.63;3.30;;;8.90;1.00;;;;;;5100654;28;20551;-76
2024/02/20 04:36:30;;;;;;;3.03;2.73;;;9.00;1.00;;;;;;5095371;27;21022;-76
2024/02/20 04:38:58;;;;;;;4.20;2.57;;;9.10;1.00;;;;;;5098591;28;20423;-76
2024/02/20 04:41:26;;;;;;;4.50;2.90;;;9.10;1.00;;;;;;5098104;28;20447;-75
2024/02/20 04:43:54;;;;;;;4.67;3.10;;;9.10;1.00;;;;;;5096592;27;20472;-75
2024/02/20 04:46:21;;;;;;;5.90;2.87;;;9.10;1.00;;;;;;5097150;28;20911;-77
2024/02/20 04:48:48;;;;;;;5.00;2.43;;;9.10;1.00;;;;;;5092957;28;21021;-76
2024/02/20 04:51:15;;;;;;;3.40;2.67;;;9.20;1.00;;;;;;5094252;28;20459;-77
2024/02/20 04:53:42;;;;;;;4.30;2.23;;;9.20;1.00;;;;;;5092332;27;20470;-76
2024/02/20 04:56:09;;;;;;;2.83;2.13;;;9.20;1.00;;;;;;5098493;28;20534;-76
2024/02/20 04:58:36;;;;;;;3.43;2.17;;;9.10;1.00;;;;;;5089599;27;20463;-75
2024/02/20 05:01:07;;;;;;;3.40;2.00;;;9.20;1.00;;;;;;5094752;27;20507;-76
2024/02/20 05:03:34;;;;;;;1.93;1.80;;;9.20;1.00;;;;;;5088466;27;20477;-76
2024/02/20 05:06:01;;;;;;;4.10;2.20;;;9.20;1.00;;;;;;5090561;28;20539;-76
2024/02/20 05:08:28;;;;;;;2.70;2.10;;;9.10;1.00;;;;;;5093225;27;20454;-75
2024/02/20 05:10:55;;;;;;;4.20;2.50;;;9.00;1.00;;;;;;5093139;28;20490;-76
2024/02/20 05:13:22;;;;;;;3.57;1.90;;;8.90;1.00;;;;;;5090854;28;20485;-76
2024/02/20 05:15:49;;;;;;;2.37;2.17;;;8.80;1.00;;;;;;5092441;27;20554;-76
2024/02/20 05:18:17;;;;;;;2.97;2.13;;;8.80;1.00;;;;;;5094753;28;20462;-75
2024/02/20 05:20:44;;;;;;;1.73;1.50;;;8.80;1.00;;;;;;5091456;28;20451;-76
2024/02/20 05:23:11;;;;;;;5.07;1.80;;;8.70;1.00;;;;;;5101421;27;20472;-75
2024/02/20 05:25:38;;;;;;;3.50;1.60;;;8.70;1.00;;;;;;5096293;27;20453;-76
2024/02/20 05:28:05;;;;;;;3.37;1.80;;;8.60;1.00;;;;;;5088873;28;20521;-76
2024/02/20 05:30:33;;;;;;;6.73;1.73;;;8.70;1.00;;;;;;5073376;28;20994;-76
2024/02/20 05:33:02;;;;;;;2.00;1.07;;;8.60;1.00;;;;;;5072664;28;20475;-75
2024/02/20 05:35:30;;;;;;;2.50;1.40;;;8.60;1.00;;;;;;5082619;28;20470;-76
2024/02/20 05:37:58;;;;;;;2.70;1.77;;;8.70;1.00;;;;;;5091370;28;20465;-77
2024/02/20 05:40:25;;;;;;;3.00;1.17;;;8.60;1.00;;;;;;5090541;27;21064;-75
2024/02/20 05:42:52;;;;;;;2.30;1.60;;;8.60;1.00;;;;;;5080277;27;20467;-74
2024/02/20 05:45:19;;;;;;;2.50;1.40;;;8.70;1.00;;;;;;5072069;28;20456;-74
2024/02/20 05:47:46;;;;;;;3.90;3.03;;;8.70;1.00;;;;;;5072856;28;20444;-74
2024/02/20 05:50:13;;;;;;;2.20;1.10;;;8.70;1.00;;;;;;5077421;28;20482;-75
2024/02/20 05:52:41;;;;;;;2.53;1.30;;;8.70;1.00;;;;;;5082187;28;20514;-77
2024/02/20 05:55:09;;;;;;;2.57;2.10;;;8.60;1.00;;;;;;5092279;28;20489;-74
2024/02/20 05:57:36;;;;;;;1.70;1.50;;;8.70;1.00;;;;;;5091185;27;20469;-74
2024/02/20 06:00:03;;;;;;;2.13;1.17;;;8.70;1.00;;;;;;5090762;28;20511;-77
2024/02/20 06:02:32;;;;;;;1.40;1.13;;;8.60;1.00;;;;;;5085913;28;20446;-74
2024/02/20 06:04:59;;;;;;;3.10;1.20;;;8.50;1.00;;;;;;5069632;28;20431;-74
2024/02/20 06:07:27;;;;;;;3.27;1.03;;;8.50;1.00;;;;;;5082452;27;20454;-74
2024/02/20 06:09:56;;;;;;;0.93;0.83;;;8.50;1.00;;;;;;5081543;28;20868;-76
2024/02/20 06:12:23;;;;;;;1.33;0.97;;;8.50;1.00;;;;;;5092456;27;20555;-74
2024/02/20 06:14:50;;;;;;;2.10;1.30;;;8.50;1.00;;;;;;5079756;28;20552;-75
2024/02/20 06:17:21;;;;;;;1.80;1.27;;;8.50;1.00;;;;;;5090507;28;21064;-75
2024/02/20 06:19:49;;;;;;;1.70;0.93;;;8.50;1.00;;;;;;5074879;28;21014;-76
2024/02/20 06:22:17;;;;;;;5.83;1.60;;;8.50;1.00;;;;;;5081271;28;20474;-76
2024/02/20 06:24:44;;;;;;;1.90;1.70;;;8.60;1.00;;;;;;5083048;28;20996;-76
2024/02/20 06:27:13;;;;;;;1.40;1.30;;;8.60;1.00;;;;;;5090774;28;20474;-77
2024/02/20 06:29:40;;;;;;;3.20;1.57;;;8.60;1.00;;;;;;5093075;27;20479;-75
2024/02/20 06:32:08;;;;;;;2.37;1.20;;;8.60;1.00;;;;;;5088482;27;20557;-74
2024/02/20 06:34:36;;;;;;;2.63;2.40;;;8.60;1.00;;;;;;5094010;28;20450;-76
2024/02/20 06:37:03;;;;;;;2.80;1.40;;;8.60;1.00;;;;;;5092598;28;20553;-76
2024/02/20 06:39:30;;;;;;;2.60;1.60;;;8.60;1.00;;;;;;5085336;28;20435;-75
2024/02/20 06:41:57;;;;;;;4.20;1.67;;;8.60;1.00;;;;;;5092393;28;20240;-74
2024/02/20 06:44:27;;;;;;;4.13;2.00;;;8.70;1.00;;;;;;5091745;27;20457;-74
2024/02/20 06:46:54;;;;;;;2.93;2.10;;;8.60;1.00;;;;;;5090175;28;20465;-77
2024/02/20 06:49:21;;;;;;;3.73;2.53;;;8.60;1.00;;;;;;5097110;27;20644;-77
2024/02/20 06:51:48;;;;;;;2.40;1.73;;;8.50;1.00;;;;;;5087766;27;20504;-74
2024/02/20 06:54:15;;;;;;;1.60;1.50;;;8.50;1.00;;;;;;5089520;27;20455;-75
2024/02/20 06:56:42;;;;;;;2.00;1.63;;;8.40;1.00;;;;;;5088524;27;20461;-75
2024/02/20 06:59:09;;;;;;;1.50;1.33;;;8.40;1.00;;;;;;5091861;27;20914;-73
2024/02/20 07:01:40;;;;;;;2.67;1.73;;;8.30;1.00;;;;;;5091587;27;20480;-75
2024/02/20 07:04:09;;;;;;;2.60;1.87;;;8.30;1.00;;;;;;5091088;27;20947;-74
2024/02/20 07:06:36;;;;;;;3.60;2.70;;;8.20;1.00;;;;;;5096686;27;20491;-74
2024/02/20 07:09:03;;;;;;;3.33;2.40;;;8.20;1.00;;;;;;5097111;27;20517;-74
2024/02/20 07:11:30;;;;;;;2.60;1.93;;;8.20;1.00;;;;;;5093463;27;20501;-73
2024/02/20 07:13:57;;;;;;;2.17;1.93;;;8.20;1.00;;;;;;5098809;27;20496;-73
2024/02/20 07:16:25;;;;;;;4.93;2.30;;;8.20;1.00;;;;;;5110933;27;20494;-75
2024/02/20 07:18:53;;;;;;;2.67;2.30;;;8.30;1.00;;;;;;5097937;28;20549;-73
2024/02/20 07:21:21;;;;;;;4.67;3.03;;;8.30;1.00;;;;;;5096066;27;20466;-73
2024/02/20 07:23:48;;;;;;;4.60;2.07;;;8.30;1.00;;;;;;5093061;27;20454;-74
2024/02/20 07:26:15;;;;;;;3.90;1.70;;;8.30;1.00;;;;;;5093606;27;20541;-74
2024/02/20 07:28:42;;;;;;;2.23;1.90;;;8.20;1.00;;;;;;5097860;27;20439;-74
2024/02/20 07:31:10;;;;;;;2.60;1.50;;;8.20;1.00;;;;;;5095790;27;20545;-74
2024/02/20 07:33:37;;;;;;;3.47;2.07;;;8.20;1.00;;;;;;5100471;27;20451;-74
2024/02/20 07:36:09;;;;;;;5.17;2.20;;;8.20;1.00;;;;;;5090298;27;21175;-75
2024/02/20 07:38:38;;;;;;;3.67;2.27;;;8.20;1.00;;;;;;5093573;27;21020;-75
2024/02/20 07:41:05;;;;;;;2.73;1.83;;;8.20;1.00;;;;;;5097345;28;20461;-75
2024/02/20 07:43:31;;;;;;;3.10;1.80;;;8.20;1.00;;;;;;5094128;27;20446;-77
2024/02/20 07:45:58;;;;;;;4.80;1.90;;;8.30;1.00;;;;;;5082094;27;20547;-75
2024/02/20 07:48:25;;;;;;;4.63;2.13;;;8.30;1.00;;;;;;5092473;28;20545;-75
2024/02/20 07:50:52;;;;;;;11.40;8.00;;;8.30;1.00;;;;;;5095906;27;20539;-74
2024/02/20 07:53:21;;;;;;;3.50;2.37;;;8.30;1.00;;;;;;5100244;27;20546;-74
2024/02/20 07:55:48;;;;;;;2.33;2.10;;;8.40;1.00;;;;;;5099081;27;20549;-75
2024/02/20 07:58:15;;;;;;;4.90;2.30;;;8.40;1.00;;;;;;5101103;27;20462;-75
2024/02/20 08:00:42;;;;;;;3.63;2.27;;;8.40;1.00;;;;;;5089238;27;20462;-74
2024/02/20 08:03:12;;;;;;;5.67;2.10;;;8.40;1.00;;;;;;5094504;27;20493;-75
2024/02/20 08:06:47;;;;;;;3.17;1.90;;;8.50;1.00;;;;;;5099067;27;1283189;-75
2024/02/20 08:09:15;;;;;;;2.77;2.27;;;8.40;1.00;;;;;;5128362;27;20479;-76
2024/02/20 08:11:42;;;;;;;3.30;2.40;;;8.50;1.00;;;;;;5122016;27;20514;-78
2024/02/20 08:14:10;;;;;;;2.40;2.17;;;8.50;1.00;;;;;;5123231;27;20460;-76
2024/02/20 08:16:39;;;;;;;3.07;2.50;;;8.60;1.00;;;;;;5125027;27;20559;-77
2024/02/20 08:19:06;;;;;;;6.70;2.13;;;8.60;1.00;;;;;;5122219;27;20868;-77
2024/02/20 08:21:34;;;;;;;3.63;2.50;;;8.60;1.00;;;;;;5130922;27;20558;-77
2024/02/20 08:24:03;;;;;;;3.00;2.20;;;8.60;1.00;;;;;;5116578;27;21063;-74
2024/02/20 08:26:30;;;;;;;4.07;1.97;;;8.70;1.00;;;;;;5109893;27;20583;-75
2024/02/20 08:28:57;;;;;;;3.00;2.10;;;8.80;1.00;;;;;;5114547;27;20567;-75
2024/02/20 08:31:25;;;;;;;1.93;1.70;;;8.70;1.00;;;;;;5122344;27;20450;-75
2024/02/20 08:33:52;;;;;;;2.47;1.70;;;8.80;1.00;;;;;;5116983;27;20461;-77
2024/02/20 08:36:19;;;;;;;5.23;1.67;;;8.80;1.00;;;;;;5107272;27;20470;-76
2024/02/20 08:38:46;;;;;;;4.00;2.60;;;8.80;1.00;;;;;;5116491;27;20560;-77
2024/02/20 08:41:15;;;;;;;3.57;2.23;;;8.80;1.00;;;;;;5107860;27;20546;-75
2024/02/20 08:43:48;;;;;;;4.80;2.17;;;8.80;1.00;;;;;;5104297;27;21119;-75
2024/02/20 08:46:15;;;;;;;4.23;2.23;;;8.80;1.00;;;;;;5113450;27;20473;-76
2024/02/20 08:48:42;;;;;;;5.90;1.67;;;8.80;1.00;;;;;;5100488;27;20465;-76
2024/02/20 08:51:09;;;;;;;3.80;2.30;;;8.90;1.00;;;;;;5102783;27;20423;-76
2024/02/20 08:53:36;;;;;;;3.43;2.27;;;8.90;1.00;;;;;;5105600;27;20453;-77
2024/02/20 08:56:04;;;;;;;3.27;1.47;;;9.00;1.00;;;;;;5111915;27;20984;-78
2024/02/20 08:58:32;;;;;;;2.90;1.70;;;9.10;1.00;;;;;;5117787;27;20481;-76
2024/02/20 09:00:59;;;;;;;3.07;1.47;;;9.30;1.00;;;;;;5127108;27;20457;-75
2024/02/20 09:03:28;;;;;;;5.60;2.60;;;9.20;1.00;;;;;;5112780;27;20450;-77
2024/02/20 09:05:56;;;;;;;3.23;1.77;;;9.10;1.00;;;;;;5114392;27;20972;-76
2024/02/20 09:08:23;;;;;;;2.90;1.50;;;9.00;1.00;;;;;;5110190;27;20972;-77
2024/02/20 09:10:50;;;;;;;3.80;2.07;;;9.00;1.00;;;;;;5108723;27;20676;-76
2024/02/20 09:13:18;;;;;;;5.70;2.90;;;9.00;1.00;;;;;;5107809;27;20977;-76
2024/02/20 09:15:47;;;;;;;3.43;2.10;;;8.90;1.00;;;;;;5108904;27;20469;-76
2024/02/20 09:18:14;;;;;;;4.20;2.67;;;8.80;1.00;;;;;;5087388;28;20455;-76
2024/02/20 09:20:41;;;;;;;4.93;2.27;;;8.70;1.00;;;;;;5096577;27;21369;-76
2024/02/20 09:23:08;;;;;;;7.23;3.83;;;8.60;1.00;;;;;;5100070;27;20535;-77
2024/02/20 09:25:35;;;;;;;14.70;3.50;;;8.50;1.00;;;;;;5094626;28;20473;-74
2024/02/20 09:28:02;;;;;;;10.00;4.30;;;8.30;1.00;;;;;;5100837;27;21194;-76
2024/02/20 09:30:29;;;;;;;8.93;3.10;;;8.40;1.00;;;;;;5101936;27;20674;-76
2024/02/20 09:32:57;;;;;;;8.07;4.40;;;8.40;1.00;;;;;;5094025;28;20302;-76
2024/02/20 09:35:25;;;;;;;9.70;3.33;;;8.40;1.00;;;;;;5092301;28;20469;-77
2024/02/20 09:37:52;;;;;;;12.40;3.80;;;8.40;1.00;;;;;;5093179;28;20537;-77
2024/02/20 09:40:20;;;;;;;15.60;3.70;;;8.50;1.00;;;;;;5106111;27;20633;-76
2024/02/20 09:42:49;;;;;;;13.83;4.17;;;8.50;1.00;;;;;;5102171;27;21067;-78
2024/02/20 09:45:19;;;;;;;5.63;2.73;;;8.40;1.00;;;;;;5094068;28;20493;-76
2024/02/20 09:47:47;;;;;;;9.50;4.07;;;8.40;1.00;;;;;;5102933;27;20445;-78
2024/02/20 09:50:18;;;;;;;11.40;4.23;;;8.40;1.00;;;;;;5096796;28;20492;-75
2024/02/20 09:52:48;;;;;;;12.53;4.30;;;8.40;1.00;;;;;;5093867;28;20439;-75
2024/02/20 09:55:20;;;;;;;11.93;3.50;;;8.40;1.00;;;;;;5095343;27;20470;-77
2024/02/20 09:57:50;;;;;;;12.13;4.80;;;8.50;1.00;;;;;;5102247;27;20667;-76
2024/02/20 10:00:18;;;;;;;10.03;3.63;;;8.60;1.00;;;;;;5101013;27;20453;-77
2024/02/20 10:02:46;;;;;;;6.93;3.10;;;8.70;1.00;;;;;;5094005;28;20502;-78
2024/02/20 10:05:17;;;;;;;6.47;3.70;;;8.80;1.00;;;;;;5097601;27;20476;-77
2024/02/20 10:07:46;;;;;;;7.57;3.50;;;8.90;1.00;;;;;;5103955;27;20478;-74
2024/02/20 10:10:15;;;;;;;8.63;3.40;;;9.00;1.00;;;;;;5096264;27;20484;-76
2024/02/20 10:12:44;;;;;;;11.50;4.00;;;9.10;1.00;;;;;;5083639;27;21031;-76
2024/02/20 10:15:13;;;;;;;7.40;3.30;;;9.20;1.00;;;;;;5096094;27;20473;-75
2024/02/20 10:17:41;;;;;;;6.43;2.40;;;9.20;1.00;;;;;;5086055;28;20457;-75
2024/02/20 10:20:11;;;;;;;8.60;3.43;;;9.20;1.00;;;;;;5092057;27;20526;-75
2024/02/20 10:22:41;;;;;;;8.67;3.23;;;9.20;1.00;;;;;;5097295;27;20553;-75
2024/02/20 10:25:12;;;;;;;8.90;3.60;;;9.20;1.00;;;;;;5106311;27;20517;-76
2024/02/20 10:27:39;;;;;;;7.70;3.40;;;9.20;1.00;;;;;;5092237;28;20949;-76
2024/02/20 10:30:08;;;;;;;15.47;4.53;;;9.30;1.00;;;;;;5089921;28;20465;-76
2024/02/20 10:32:36;;;;;;;7.50;3.87;;;9.30;1.00;;;;;;5091777;28;20489;-75
2024/02/20 10:35:05;;;;;;;8.10;3.07;;;9.20;1.00;;;;;;5105078;27;20481;-77
2024/02/20 10:37:32;;;;;;;8.70;4.20;;;9.30;1.00;;;;;;5094024;28;20459;-77
2024/02/20 10:40:09;;;;;;;7.43;3.20;;;9.40;1.00;;;;;;5094048;28;20446;-74
2024/02/20 10:42:37;;;;;;;8.30;4.10;;;9.50;1.00;;;;;;5093750;28;20497;-74
2024/02/20 10:45:09;;;;;;;11.40;4.53;;;9.80;1.00;;;;;;5088180;28;20477;-75
2024/02/20 10:47:40;;;;;;;7.80;3.83;;;9.90;1.00;;;;;;5089242;28;21807;-73
2024/02/20 10:50:09;;;;;;;8.90;3.13;;;10.20;1.00;;;;;;5090131;28;20464;-76
2024/02/20 10:52:37;;;;;;;10.90;4.30;;;10.20;1.00;;;;;;5086903;28;21200;-75
2024/02/20 10:55:10;;;;;;;9.90;3.63;;;10.20;1.00;;;;;;5100615;27;20442;-73
2024/02/20 10:57:40;;;;;;;12.57;3.83;;;10.30;1.00;;;;;;5109163;27;20461;-73
2024/02/20 11:00:09;;;;;;;12.50;5.30;;;10.20;1.00;;;;;;5110266;27;20505;-73
2024/02/20 11:02:37;;;;;;;11.40;3.63;;;10.10;1.00;;;;;;5106462;27;20461;-72
2024/02/20 11:05:06;;;;;;;8.77;3.20;;;9.90;1.00;;;;;;5110189;27;20465;-73
2024/02/20 11:07:34;;;;;;;8.67;3.07;;;10.00;1.00;;;;;;5107980;27;20470;-73
2024/02/20 11:10:09;;;;;;;7.47;2.83;;;10.30;1.00;;;;;;5113513;27;21086;-74
2024/02/20 11:12:37;;;;;;;9.27;3.87;;;10.80;1.00;;;;;;5100984;27;20875;-74
2024/02/20 11:15:14;;;;;;;9.30;4.03;;;11.00;1.00;;;;;;5091765;28;20490;-73
2024/02/20 11:17:41;;;;;;;7.33;3.63;;;10.90;1.00;;;;;;5092608;27;20481;-73
2024/02/20 11:20:13;;;;;;;11.30;4.17;;;10.90;1.00;;;;;;5104331;27;20478;-77
2024/02/20 11:22:40;;;;;;;14.53;4.47;;;10.60;1.00;;;;;;5109656;27;20466;-74
2024/02/20 11:25:09;;;;;;;14.40;3.97;;;10.40;1.00;;;;;;5104133;27;20483;-73
2024/02/20 11:27:44;;;;;;;8.87;3.53;;;10.30;1.00;;;;;;5102598;27;20455;-74
2024/02/20 11:30:17;;;;;;;12.60;3.57;;;10.50;1.00;;;;;;5108406;27;20481;-74
2024/02/20 11:32:44;;;;;;;10.70;3.60;;;10.60;1.00;;;;;;5101362;27;20540;-73
2024/02/20 11:35:23;;;;;;;12.70;4.00;;;10.60;1.00;;;;;;5111266;27;20490;-72
2024/02/20 11:37:52;;;;;;;8.23;3.23;;;10.40;1.00;;;;;;5100647;27;20451;-73
2024/02/20 11:40:23;;;;;;;11.73;4.20;;;10.20;1.00;;;;;;5090537;28;20530;-77
2024/02/20 11:42:54;;;;;;;14.50;4.03;;;10.10;1.00;;;;;;5094182;27;20569;-75
2024/02/20 11:45:22;;;;;;;13.10;3.47;;;10.00;1.00;;;;;;5100972;27;20561;-73
2024/02/20 11:48:01;;;;;;;9.77;3.90;;;10.00;1.00;;;;;;5091377;28;20549;-73
2024/02/20 11:50:28;;;;;;;10.30;3.53;;;10.00;1.00;;;;;;5095510;27;21265;-74
2024/02/20 11:53:00;;;;;;;10.60;3.50;;;10.00;1.00;;;;;;5091374;28;20546;-74
2024/02/20 11:55:29;;;;;;;17.10;5.50;;;10.00;1.00;;;;;;5089707;27;20498;-74
2024/02/20 11:57:58;;;;;;;12.30;4.67;;;10.00;1.00;;;;;;5098101;27;20528;-73
2024/02/20 12:00:27;;;;;;;16.03;4.47;;;10.00;1.00;;;;;;5101095;28;20469;-74
2024/02/20 12:02:56;;;;;;;13.60;4.13;;;10.10;1.00;;;;;;5111523;27;20469;-74
2024/02/20 12:05:27;;;;;;;9.60;4.57;;;10.20;1.00;;;;;;5100976;27;20559;-74
2024/02/20 12:07:56;;;;;;;14.60;4.07;;;10.20;1.00;;;;;;5103930;27;20938;-73
2024/02/20 12:10:27;;;;;;;13.93;4.03;;;10.10;1.00;;;;;;5092544;28;20529;-73
2024/02/20 12:12:54;;;;;;;19.80;5.37;;;10.10;1.00;;;;;;5087650;28;21076;-74
2024/02/20 12:15:23;;;;;;;13.93;4.30;;;10.10;1.00;;;;;;5090355;28;20991;-76
2024/02/20 12:17:51;;;;;;;25.33;5.90;;;10.30;1.00;;;;;;5093053;27;20996;-75
2024/02/20 12:20:22;;;;;;;8.93;4.03;;;10.30;1.00;;;;;;5097355;28;20467;-77
2024/02/20 12:23:00;;;;;;;12.63;5.40;;;10.30;1.00;;;;;;5102512;27;20461;-77
2024/02/20 12:25:28;;;;;;;16.13;6.10;;;10.40;1.00;;;;;;5100107;27;20471;-75
2024/02/20 12:27:56;;;;;;;12.50;4.47;;;10.50;1.00;;;;;;5089904;28;20462;-77
2024/02/20 12:30:25;;;;;;;14.93;5.20;;;10.50;1.00;;;;;;5097104;27;20466;-75
2024/02/20 12:32:52;;;;;;;9.63;3.73;;;10.40;1.00;;;;;;5089225;28;21077;-76
2024/02/20 12:35:19;;;;;;;19.07;5.73;;;10.30;1.00;;;;;;5100779;27;20482;-73
2024/02/20 12:37:47;;;;;;;11.77;3.90;;;10.20;1.00;;;;;;5091115;28;20512;-75
2024/02/20 12:40:18;;;;;;;14.77;4.67;;;10.10;1.00;;;;;;5090659;28;20528;-73
2024/02/20 12:42:45;;;;;;;14.17;4.57;;;10.10;1.00;;;;;;5090092;28;20551;-75
2024/02/20 12:45:13;;;;;;;12.93;4.50;;;10.20;1.00;;;;;;5093523;28;20461;-73
2024/02/20 12:47:41;;;;;;;11.70;4.53;;;10.10;1.00;;;;;;5101532;27;20487;-76
2024/02/20 12:50:08;;;;;;;12.60;4.60;;;10.10;1.00;;;;;;5110124;27;20492;-75
2024/02/20 12:52:37;;;;;;;14.30;4.60;;;10.20;1.00;;;;;;5107406;27;20469;-75
2024/02/20 12:55:04;;;;;;;9.07;3.70;;;10.30;1.00;;;;;;5093825;28;20454;-76
2024/02/20 12:57:32;;;;;;;17.00;5.30;;;10.30;1.00;;;;;;5112495;27;20461;-74
2024/02/20 12:59:59;;;;;;;12.83;4.63;;;10.30;1.00;;;;;;5097699;28;20460;-75
2024/02/20 13:02:26;;;;;;;13.67;5.20;;;10.30;1.00;;;;;;5093584;27;20971;-74
2024/02/20 13:04:57;;;;;;;12.33;4.10;;;10.30;1.00;;;;;;5096397;27;20477;-74
2024/02/20 13:07:24;;;;;;;15.30;6.20;;;10.40;1.00;;;;;;5113740;27;20545;-76
2024/02/20 13:09:55;;;;;;;17.73;6.00;;;10.60;1.00;;;;;;5113012;27;20485;-75